createdAt,value
2023-05-19T00:01:27.280Z,7.2
2023-05-19T00:05:26.982Z,7.1
2023-05-19T00:07:30.045Z,7.1
2023-05-19T00:09:25.233Z,7.0
2023-05-19T00:11:25.860Z,7.0
2023-05-19T00:15:24.953Z,6.8
2023-05-19T00:17:24.216Z,7.1
2023-05-19T00:19:24.592Z,7.0
2023-05-19T00:21:23.170Z,7.1
2023-05-19T00:23:22.810Z,6.8
2023-05-19T00:25:22.827Z,6.9
2023-05-19T00:27:22.264Z,6.8
2023-05-19T00:29:21.987Z,6.9
2023-05-19T00:31:21.772Z,6.7
2023-05-19T00:33:21.897Z,7.0
2023-05-19T00:35:21.889Z,6.8
2023-05-19T00:37:20.980Z,6.5
2023-05-19T00:39:20.295Z,6.5
2023-05-19T00:41:20.105Z,6.7
2023-05-19T00:43:19.873Z,6.8
2023-05-19T00:45:19.652Z,6.7
2023-05-19T00:47:19.033Z,6.5
2023-05-19T00:49:18.630Z,6.7
2023-05-19T00:51:18.762Z,6.3
2023-05-19T00:53:18.294Z,6.4
2023-05-19T00:55:19.231Z,6.2
2023-05-19T00:57:17.610Z,6.6
2023-05-19T00:59:17.030Z,6.2
2023-05-19T01:01:17.919Z,6.3
2023-05-19T01:03:19.361Z,6.3
2023-05-19T01:05:16.530Z,6.3
2023-05-19T01:07:15.725Z,6.3
2023-05-19T01:09:16.373Z,6.3
2023-05-19T01:11:15.055Z,6.4
2023-05-19T01:13:14.838Z,6.4
2023-05-19T01:15:15.032Z,6.4
2023-05-19T01:17:20.235Z,6.2
2023-05-19T01:19:31.032Z,6.2
2023-05-19T01:21:35.225Z,6.2
2023-05-19T01:23:27.782Z,6.2
2023-05-19T01:25:32.422Z,6.4
2023-05-19T01:27:32.035Z,6.4
2023-05-19T01:29:31.691Z,6.3
2023-05-19T01:31:12.478Z,6.1
2023-05-19T01:35:14.431Z,6.1
2023-05-19T01:37:14.120Z,6.2
2023-05-19T01:39:10.905Z,6.1
2023-05-19T01:43:14.430Z,6.1
2023-05-19T01:45:10.970Z,6.0
2023-05-19T01:47:09.956Z,6.0
2023-05-19T01:49:08.984Z,6.2
2023-05-19T01:51:08.248Z,6.0
2023-05-19T01:53:08.166Z,5.8
2023-05-19T01:55:08.680Z,5.9
2023-05-19T01:57:19.018Z,5.9
2023-05-19T01:59:22.694Z,5.8
2023-05-19T02:01:15.468Z,5.8
2023-05-19T02:03:16.644Z,5.8
2023-05-19T02:05:16.164Z,5.8
2023-05-19T02:07:12.947Z,5.7
2023-05-19T02:09:12.708Z,5.6
2023-05-19T02:11:11.587Z,5.8
2023-05-19T02:13:07.572Z,5.9
2023-05-19T02:17:05.013Z,5.8
2023-05-19T02:19:03.428Z,5.8
2023-05-19T02:21:03.239Z,5.7
2023-05-19T02:23:02.760Z,5.7
2023-05-19T02:25:02.728Z,5.6
2023-05-19T02:27:02.326Z,5.4
2023-05-19T02:29:01.589Z,5.4
2023-05-19T02:31:01.818Z,5.4
2023-05-19T02:33:01.172Z,5.4
2023-05-19T02:35:00.684Z,5.3
2023-05-19T02:37:00.315Z,5.6
2023-05-19T02:39:00.830Z,5.5
2023-05-19T02:40:59.659Z,5.8
2023-05-19T02:44:59.738Z,5.6
2023-05-19T02:46:58.424Z,5.6
2023-05-19T02:48:58.263Z,5.6
2023-05-19T02:50:57.674Z,5.5
2023-05-19T02:52:57.331Z,5.7
2023-05-19T02:54:56.981Z,5.5
2023-05-19T02:56:57.429Z,5.3
2023-05-19T02:58:57.400Z,5.4
2023-05-19T03:02:55.827Z,5.3
2023-05-19T03:04:55.292Z,5.5
2023-05-19T03:06:55.086Z,5.2
2023-05-19T03:08:54.518Z,5.3
2023-05-19T03:10:54.203Z,5.3
2023-05-19T03:12:53.828Z,5.2
2023-05-19T03:14:53.501Z,5.3
2023-05-19T03:16:55.122Z,5.4
2023-05-19T03:18:52.868Z,5.4
2023-05-19T03:20:52.992Z,5.4
2023-05-19T03:22:52.100Z,5.6
2023-05-19T03:24:53.233Z,5.5
2023-05-19T03:26:51.589Z,5.4
2023-05-19T03:28:51.096Z,5.3
2023-05-19T03:30:50.635Z,5.4
2023-05-19T03:32:51.044Z,5.4
2023-05-19T03:34:49.951Z,5.3
2023-05-19T03:36:49.629Z,5.2
2023-05-19T03:38:49.214Z,5.1
2023-05-19T03:40:48.856Z,5.1
2023-05-19T03:42:48.489Z,5.0
2023-05-19T03:44:48.263Z,5.2
2023-05-19T03:46:47.811Z,4.9
2023-05-19T03:48:47.642Z,5.0
2023-05-19T03:50:47.601Z,4.8
2023-05-19T03:52:47.830Z,4.6
2023-05-19T04:00:45.516Z,5.0
2023-05-19T04:02:45.089Z,5.3
2023-05-19T04:04:44.506Z,5.1
2023-05-19T04:06:44.576Z,5.1
2023-05-19T04:08:43.634Z,5.1
2023-05-19T04:10:43.342Z,5.0
2023-05-19T04:12:42.966Z,5.2
2023-05-19T04:14:42.620Z,5.3
2023-05-19T04:16:42.310Z,5.4
2023-05-19T04:18:44.418Z,5.4
2023-05-19T04:20:41.882Z,5.6
2023-05-19T04:22:41.148Z,5.7
2023-05-19T04:24:40.652Z,5.7
2023-05-19T04:26:44.833Z,5.5
2023-05-19T04:28:41.405Z,5.7
2023-05-19T04:30:39.652Z,5.8
2023-05-19T04:34:39.366Z,5.9
2023-05-19T04:36:38.591Z,6.0
2023-05-19T04:38:38.880Z,6.0
2023-05-19T04:40:41.238Z,6.0
2023-05-19T04:42:40.419Z,6.0
2023-05-19T04:44:39.066Z,6.1
2023-05-19T04:46:36.787Z,6.2
2023-05-19T04:48:36.427Z,6.2
2023-05-19T04:50:37.555Z,6.3
2023-05-19T04:52:36.681Z,6.2
2023-05-19T04:54:35.599Z,6.3
2023-05-19T04:56:35.018Z,6.3
2023-05-19T04:58:34.710Z,6.3
2023-05-19T05:00:34.853Z,6.3
2023-05-19T05:02:34.418Z,6.3
2023-05-19T05:04:33.467Z,6.5
2023-05-19T05:06:33.171Z,6.5
2023-05-19T05:08:33.024Z,6.6
2023-05-19T05:10:32.600Z,6.6
2023-05-19T05:12:32.941Z,6.8
2023-05-19T05:16:32.997Z,6.8
2023-05-19T05:18:31.804Z,6.9
2023-05-19T05:20:31.585Z,7.0
2023-05-19T05:22:30.799Z,7.1
2023-05-19T05:24:30.919Z,7.2
2023-05-19T05:26:32.557Z,7.2
2023-05-19T05:30:28.896Z,7.4
2023-05-19T05:34:28.396Z,7.4
2023-05-19T05:36:27.921Z,7.5
2023-05-19T05:38:27.733Z,7.6
2023-05-19T05:40:27.375Z,7.6
2023-05-19T05:44:26.488Z,7.7
2023-05-19T05:46:26.276Z,7.8
2023-05-19T05:48:26.148Z,7.8
2023-05-19T05:50:25.924Z,7.9
2023-05-19T05:54:25.357Z,7.9
2023-05-19T05:56:25.751Z,8.0
2023-05-19T05:58:24.226Z,8.1
2023-05-19T06:00:24.060Z,8.2
2023-05-19T06:02:23.790Z,8.3
2023-05-19T06:04:24.580Z,8.2
2023-05-19T06:06:22.811Z,8.1
2023-05-19T06:08:22.415Z,8.3
2023-05-19T06:10:22.338Z,8.4
2023-05-19T06:12:22.012Z,8.6
2023-05-19T06:14:21.429Z,8.6
2023-05-19T06:16:21.276Z,8.6
2023-05-19T06:18:20.792Z,8.5
2023-05-19T06:20:20.872Z,8.5
2023-05-19T06:22:20.257Z,8.6
2023-05-19T06:24:19.774Z,8.6
2023-05-19T06:26:19.931Z,8.7
2023-05-19T06:28:19.284Z,8.7
2023-05-19T06:32:18.686Z,8.8
2023-05-19T06:34:18.291Z,8.9
2023-05-19T06:36:17.830Z,9.0
2023-05-19T06:38:17.596Z,9.1
2023-05-19T06:40:17.352Z,9.3
2023-05-19T06:42:21.077Z,9.2
2023-05-19T06:44:17.107Z,9.2
2023-05-19T06:46:16.733Z,9.4
2023-05-19T06:48:16.155Z,9.5
2023-05-19T06:50:15.802Z,9.5
2023-05-19T06:52:15.706Z,9.5
2023-05-19T06:54:15.084Z,9.6
2023-05-19T06:56:15.182Z,9.6
2023-05-19T06:58:14.932Z,9.7
2023-05-19T07:04:14.088Z,9.9
2023-05-19T07:06:13.296Z,10.1
2023-05-19T07:10:12.686Z,10.2
2023-05-19T07:14:12.129Z,10.2
2023-05-19T07:16:11.806Z,10.3
2023-05-19T07:20:11.923Z,10.4
2023-05-19T07:22:10.958Z,10.5
2023-05-19T07:24:10.650Z,10.6
2023-05-19T07:26:10.639Z,10.6
2023-05-19T07:28:10.107Z,10.5
2023-05-19T07:30:10.875Z,10.6
2023-05-19T07:32:09.541Z,10.8
2023-05-19T07:34:09.497Z,10.9
2023-05-19T07:36:09.093Z,10.8
2023-05-19T07:38:08.714Z,10.9
2023-05-19T07:40:09.184Z,10.8
2023-05-19T07:42:08.237Z,11.0
2023-05-19T07:44:09.337Z,11.1
2023-05-19T07:46:07.753Z,11.4
2023-05-19T07:48:07.277Z,11.5
2023-05-19T07:52:06.927Z,11.4
2023-05-19T07:54:07.330Z,11.6
2023-05-19T07:56:06.224Z,11.8
2023-05-19T07:58:06.440Z,11.5
2023-05-19T08:02:05.650Z,11.9
2023-05-19T08:04:05.500Z,11.9
2023-05-19T08:06:05.126Z,11.9
2023-05-19T08:08:05.068Z,12.1
2023-05-19T08:10:05.454Z,12.1
2023-05-19T08:12:05.052Z,12.2
2023-05-19T08:14:04.514Z,12.3
2023-05-19T08:16:04.294Z,12.4
2023-05-19T08:18:04.247Z,12.5
2023-05-19T08:22:03.526Z,12.5
2023-05-19T08:24:03.397Z,12.5
2023-05-19T08:26:02.941Z,12.6
2023-05-19T08:28:02.745Z,12.6
2023-05-19T08:30:02.810Z,12.8
2023-05-19T08:34:02.496Z,13.1
2023-05-19T08:36:01.842Z,13.1
2023-05-19T08:38:01.586Z,12.9
2023-05-19T08:40:03.945Z,13.3
2023-05-19T08:44:01.167Z,13.5
2023-05-19T08:46:03.004Z,13.5
2023-05-19T08:48:00.712Z,13.7
2023-05-19T08:50:04.204Z,13.6
2023-05-19T08:52:08.922Z,13.5
2023-05-19T08:54:08.060Z,13.4
2023-05-19T08:58:00.357Z,13.7
2023-05-19T09:00:00.214Z,13.7
2023-05-19T09:01:59.807Z,13.8
2023-05-19T09:03:59.466Z,13.7
2023-05-19T09:05:58.706Z,13.7
2023-05-19T09:08:01.563Z,13.9
2023-05-19T09:09:59.915Z,14.1
2023-05-19T09:11:58.185Z,14.1
2023-05-19T09:13:58.136Z,14.1
2023-05-19T09:15:58.904Z,14.1
2023-05-19T09:18:07.062Z,14.3
2023-05-19T09:20:00.991Z,14.5
2023-05-19T09:21:59.092Z,14.4
2023-05-19T09:23:57.770Z,14.4
2023-05-19T09:25:57.302Z,14.6
2023-05-19T09:27:56.916Z,14.7
2023-05-19T09:30:07.624Z,14.7
2023-05-19T09:31:59.541Z,14.6
2023-05-19T09:33:56.059Z,14.6
2023-05-19T09:37:55.897Z,14.8
2023-05-19T09:39:56.147Z,14.7
2023-05-19T09:41:57.424Z,14.7
2023-05-19T09:43:55.291Z,15.0
2023-05-19T09:45:59.591Z,15.1
2023-05-19T09:47:55.028Z,15.4
2023-05-19T09:49:56.252Z,15.4
2023-05-19T09:51:54.666Z,15.5
2023-05-19T09:53:54.423Z,15.2
2023-05-19T09:55:56.522Z,15.5
2023-05-19T09:57:55.313Z,15.6
2023-05-19T09:59:55.924Z,15.3
2023-05-19T10:01:55.197Z,15.4
2023-05-19T10:07:54.166Z,15.5
2023-05-19T10:09:54.344Z,15.9
2023-05-19T10:11:54.549Z,16.0
2023-05-19T10:13:52.978Z,16.1
2023-05-19T10:15:58.937Z,15.9
2023-05-19T10:17:53.819Z,15.5
2023-05-19T10:19:53.794Z,15.9
2023-05-19T10:21:53.178Z,15.3
2023-05-19T10:23:52.194Z,15.4
2023-05-19T10:25:55.529Z,15.9
2023-05-19T10:27:55.500Z,15.9
2023-05-19T10:29:54.179Z,16.0
2023-05-19T10:31:54.103Z,15.9
2023-05-19T10:34:04.217Z,15.8
2023-05-19T10:36:07.962Z,16.0
2023-05-19T10:37:58.011Z,16.0
2023-05-19T10:42:03.191Z,16.1
2023-05-19T10:43:59.011Z,16.2
2023-05-19T10:45:53.714Z,16.0
2023-05-19T10:47:50.477Z,16.1
2023-05-19T10:49:51.182Z,16.0
2023-05-19T10:53:49.938Z,16.3
2023-05-19T10:55:51.459Z,16.2
2023-05-19T10:57:55.575Z,16.1
2023-05-19T10:59:49.226Z,16.0
2023-05-19T11:03:51.168Z,16.1
2023-05-19T11:05:51.239Z,16.1
2023-05-19T11:07:55.112Z,16.3
2023-05-19T11:09:50.588Z,16.4
2023-05-19T11:11:49.528Z,16.2
2023-05-19T11:13:50.972Z,16.7
2023-05-19T11:15:48.921Z,16.9
2023-05-19T11:17:48.657Z,16.8
2023-05-19T11:19:52.991Z,16.7
2023-05-19T11:21:49.435Z,16.4
2023-05-19T11:23:47.335Z,16.6
2023-05-19T11:25:49.785Z,16.7
2023-05-19T11:27:47.412Z,16.9
2023-05-19T11:29:48.447Z,17.1
2023-05-19T11:31:47.874Z,16.8
2023-05-19T11:33:47.353Z,17.0
2023-05-19T11:35:48.417Z,16.9
2023-05-19T11:37:48.060Z,16.9
2023-05-19T11:39:46.435Z,17.4
2023-05-19T11:41:46.045Z,16.8
2023-05-19T11:45:46.003Z,16.9
2023-05-19T11:48:02.148Z,16.8
2023-05-19T11:49:47.987Z,16.7
2023-05-19T11:51:45.725Z,16.8
2023-05-19T11:53:48.633Z,16.9
2023-05-19T11:55:46.750Z,16.5
2023-05-19T11:58:02.798Z,16.8
2023-05-19T11:59:47.040Z,16.6
2023-05-19T12:01:45.305Z,17.0
2023-05-19T12:03:45.298Z,16.8
2023-05-19T12:05:47.953Z,16.8
2023-05-19T12:07:46.383Z,16.8
2023-05-19T12:09:45.697Z,17.2
2023-05-19T12:11:44.479Z,17.1
2023-05-19T12:13:44.623Z,17.1
2023-05-19T12:15:44.078Z,17.4
2023-05-19T12:17:45.566Z,17.5
2023-05-19T12:21:44.364Z,17.0
2023-05-19T12:23:44.124Z,17.2
2023-05-19T12:25:43.524Z,17.6
2023-05-19T12:27:44.198Z,17.3
2023-05-19T12:29:48.973Z,17.2
2023-05-19T12:31:45.823Z,17.5
2023-05-19T12:33:43.180Z,17.3
2023-05-19T12:35:43.530Z,17.4
2023-05-19T12:37:42.927Z,17.4
2023-05-19T12:39:43.972Z,17.4
2023-05-19T12:41:44.099Z,17.6
2023-05-19T12:43:42.490Z,17.7
2023-05-19T12:47:47.403Z,17.4
2023-05-19T12:49:54.220Z,17.6
2023-05-19T12:51:50.039Z,17.3
2023-05-19T12:53:42.044Z,17.4
2023-05-19T12:57:43.276Z,17.6
2023-05-19T12:59:42.038Z,17.7
2023-05-19T13:01:41.511Z,17.7
2023-05-19T13:03:41.610Z,17.6
2023-05-19T13:05:43.735Z,17.9
2023-05-19T13:07:41.145Z,18.0
2023-05-19T13:09:41.206Z,17.9
2023-05-19T13:11:42.601Z,17.7
2023-05-19T13:13:40.946Z,18.1
2023-05-19T13:15:43.089Z,17.8
2023-05-19T13:17:40.817Z,17.8
2023-05-19T13:19:41.064Z,17.9
2023-05-19T13:21:42.672Z,18.1
2023-05-19T13:23:40.342Z,18.3
2023-05-19T13:25:40.987Z,18.1
2023-05-19T13:29:40.105Z,18.1
2023-05-19T13:31:39.975Z,18.1
2023-05-19T13:33:40.152Z,18.2
2023-05-19T13:35:39.788Z,18.4
2023-05-19T13:37:40.771Z,18.2
2023-05-19T13:39:39.683Z,18.1
2023-05-19T13:41:39.609Z,18.6
2023-05-19T13:43:39.306Z,18.8
2023-05-19T13:45:41.187Z,18.6
2023-05-19T13:47:39.131Z,18.6
2023-05-19T13:49:40.318Z,18.6
2023-05-19T13:51:42.353Z,18.3
2023-05-19T13:53:39.137Z,18.1
2023-05-19T13:55:38.955Z,18.0
2023-05-19T13:57:38.819Z,18.2
2023-05-19T13:59:45.882Z,17.9
2023-05-19T14:01:38.569Z,18.2
2023-05-19T14:03:38.646Z,18.2
2023-05-19T14:05:38.418Z,18.6
2023-05-19T14:07:38.379Z,18.5
2023-05-19T14:09:38.367Z,18.5
2023-05-19T14:11:38.202Z,18.5
2023-05-19T14:13:41.706Z,18.3
2023-05-19T14:15:38.407Z,18.4
2023-05-19T14:19:37.869Z,18.6
2023-05-19T14:21:37.674Z,18.7
2023-05-19T14:23:37.674Z,18.8
2023-05-19T14:25:37.495Z,18.7
2023-05-19T14:27:38.766Z,18.8
2023-05-19T14:29:37.460Z,18.5
2023-05-19T14:31:37.364Z,18.4
2023-05-19T14:33:37.200Z,18.7
2023-05-19T14:35:37.136Z,18.6
2023-05-19T14:37:37.191Z,18.6
2023-05-19T14:39:37.084Z,18.7
2023-05-19T14:43:36.864Z,18.7
2023-05-19T14:45:37.811Z,18.6
2023-05-19T14:47:36.756Z,19.2
2023-05-19T14:49:36.663Z,18.8
2023-05-19T14:51:36.626Z,18.7
2023-05-19T14:53:36.549Z,18.5
2023-05-19T14:59:36.817Z,18.9
2023-05-19T15:01:36.316Z,19.0
2023-05-19T15:03:36.240Z,19.3
2023-05-19T15:05:36.796Z,19.3
2023-05-19T15:07:36.354Z,19.1
2023-05-19T15:09:36.035Z,19.2
2023-05-19T15:11:36.068Z,19.0
2023-05-19T15:13:35.946Z,18.9
2023-05-19T15:15:35.843Z,19.0
2023-05-19T15:17:36.050Z,18.9
2023-05-19T15:21:35.786Z,19.2
2023-05-19T15:23:35.764Z,19.0
2023-05-19T15:25:36.215Z,18.8
2023-05-19T15:27:35.615Z,18.8
2023-05-19T15:29:35.769Z,18.6
2023-05-19T15:31:37.410Z,18.8
2023-05-19T15:37:35.193Z,18.7
2023-05-19T15:39:35.160Z,18.9
2023-05-19T15:41:35.199Z,19.2
2023-05-19T15:43:35.263Z,18.8
2023-05-19T15:45:34.912Z,18.9
2023-05-19T15:47:34.948Z,19.1
2023-05-19T15:49:34.770Z,18.9
2023-05-19T15:51:34.758Z,18.9
2023-05-19T15:53:35.337Z,18.7
2023-05-19T15:55:34.596Z,18.6
2023-05-19T15:57:34.657Z,18.8
2023-05-19T15:59:34.651Z,18.9
2023-05-19T16:01:35.069Z,18.9
2023-05-19T16:03:34.422Z,19.0
2023-05-19T16:05:34.819Z,19.1
2023-05-19T16:07:34.859Z,19.0
2023-05-19T16:11:34.060Z,18.9
2023-05-19T16:13:34.137Z,19.2
2023-05-19T16:15:34.148Z,18.9
2023-05-19T16:17:34.254Z,18.9
2023-05-19T16:19:33.867Z,19.0
2023-05-19T16:21:33.814Z,18.9
2023-05-19T16:23:33.806Z,18.9
2023-05-19T16:25:33.694Z,18.9
2023-05-19T16:27:33.647Z,18.7
2023-05-19T16:29:33.564Z,18.9
2023-05-19T16:31:33.474Z,19.0
2023-05-19T16:33:33.418Z,19.1
2023-05-19T16:35:33.637Z,18.9
2023-05-19T16:37:33.562Z,19.0
2023-05-19T16:39:35.186Z,18.8
2023-05-19T16:41:33.087Z,18.5
2023-05-19T16:43:33.003Z,18.5
2023-05-19T16:45:33.007Z,18.5
2023-05-19T16:47:32.899Z,18.3
2023-05-19T16:49:33.202Z,18.3
2023-05-19T16:51:32.717Z,18.2
2023-05-19T16:53:32.573Z,18.1
2023-05-19T16:57:32.723Z,18.2
2023-05-19T16:59:32.281Z,18.4
2023-05-19T17:01:32.284Z,18.4
2023-05-19T17:03:34.544Z,18.4
2023-05-19T17:09:31.840Z,18.5
2023-05-19T17:11:31.795Z,18.5
2023-05-19T17:13:35.024Z,18.5
2023-05-19T17:15:32.777Z,18.5
2023-05-19T17:17:31.477Z,18.5
2023-05-19T17:19:31.619Z,18.5
2023-05-19T17:21:31.513Z,18.4
2023-05-19T17:23:31.844Z,18.4
2023-05-19T17:25:31.892Z,18.5
2023-05-19T17:27:31.044Z,18.6
2023-05-19T17:29:31.158Z,18.5
2023-05-19T17:31:30.987Z,18.5
2023-05-19T17:33:30.823Z,18.3
2023-05-19T17:35:32.302Z,18.1
2023-05-19T17:41:30.736Z,17.8
2023-05-19T17:43:30.342Z,17.8
2023-05-19T17:45:30.445Z,17.8
2023-05-19T17:47:30.146Z,17.7
2023-05-19T17:49:30.075Z,17.8
2023-05-19T17:53:30.214Z,17.6
2023-05-19T17:55:30.421Z,17.6
2023-05-19T17:57:32.163Z,17.5
2023-05-19T17:59:30.272Z,17.6
2023-05-19T18:01:31.225Z,17.5
2023-05-19T18:03:29.778Z,17.4
2023-05-19T18:05:29.736Z,17.4
2023-05-19T18:07:31.127Z,17.4
2023-05-19T18:09:29.581Z,17.4
2023-05-19T18:11:29.096Z,17.3
2023-05-19T18:13:29.126Z,17.1
2023-05-19T18:15:29.454Z,17.1
2023-05-19T18:17:28.908Z,17.0
2023-05-19T18:19:28.922Z,17.0
2023-05-19T18:21:28.642Z,17.0
2023-05-19T18:23:28.514Z,17.0
2023-05-19T18:25:28.563Z,16.8
2023-05-19T18:27:28.781Z,16.8
2023-05-19T18:31:28.217Z,16.7
2023-05-19T18:33:30.048Z,16.7
2023-05-19T18:35:27.986Z,16.7
2023-05-19T18:39:29.260Z,16.5
2023-05-19T18:41:27.843Z,16.5
2023-05-19T18:43:29.115Z,16.4
2023-05-19T18:51:27.131Z,16.3
2023-05-19T18:53:27.096Z,16.2
2023-05-19T18:55:27.021Z,16.1
2023-05-19T18:57:27.015Z,16.2
2023-05-19T18:59:26.751Z,16.0
2023-05-19T19:01:26.785Z,15.8
2023-05-19T19:03:27.505Z,15.8
2023-05-19T19:05:26.769Z,15.7
2023-05-19T19:07:26.919Z,15.7
2023-05-19T19:09:26.202Z,15.6
2023-05-19T19:11:26.798Z,15.7
2023-05-19T19:13:26.137Z,15.5
2023-05-19T19:15:27.292Z,15.5
2023-05-19T19:17:26.365Z,15.5
2023-05-19T19:19:28.722Z,15.4
2023-05-19T19:21:25.525Z,15.4
2023-05-19T19:23:25.412Z,15.4
2023-05-19T19:25:25.343Z,15.3
2023-05-19T19:27:29.848Z,15.3
2023-05-19T19:29:25.127Z,15.3
2023-05-19T19:31:27.645Z,15.1
2023-05-19T19:33:24.962Z,15.1
2023-05-19T19:35:25.305Z,15.1
2023-05-19T19:37:24.725Z,15.0
2023-05-19T19:39:24.612Z,15.0
2023-05-19T19:41:25.400Z,14.7
2023-05-19T19:43:24.453Z,14.6
2023-05-19T19:45:24.308Z,14.6
2023-05-19T19:47:24.015Z,14.3
2023-05-19T19:49:23.988Z,14.1
2023-05-19T19:51:23.729Z,14.3
2023-05-19T19:53:23.718Z,14.1
2023-05-19T19:55:23.447Z,14.2
2023-05-19T19:57:23.783Z,14.4
2023-05-19T20:01:26.285Z,14.2
2023-05-19T20:03:23.160Z,13.9
2023-05-19T20:05:22.692Z,13.9
2023-05-19T20:07:22.624Z,13.9
2023-05-19T20:09:22.931Z,14.0
2023-05-19T20:11:23.365Z,14.0
2023-05-19T20:13:22.163Z,13.8
2023-05-19T20:15:22.125Z,13.9
2023-05-19T20:17:21.983Z,13.8
2023-05-19T20:19:23.975Z,13.9
2023-05-19T20:23:21.650Z,14.0
2023-05-19T20:25:21.375Z,14.0
2023-05-19T20:27:21.099Z,14.0
2023-05-19T20:29:22.778Z,14.0
2023-05-19T20:31:22.627Z,13.9
2023-05-19T20:33:20.727Z,14.0
2023-05-19T20:35:21.405Z,14.0
2023-05-19T20:37:21.050Z,13.9
2023-05-19T20:41:19.993Z,13.8
2023-05-19T20:43:20.188Z,13.7
2023-05-19T20:45:20.264Z,13.9
2023-05-19T20:51:21.263Z,13.6
2023-05-19T20:55:18.910Z,13.5
2023-05-19T20:57:18.848Z,13.6
2023-05-19T20:59:18.476Z,13.6
2023-05-19T21:01:18.247Z,13.7
2023-05-19T21:03:18.288Z,13.6
2023-05-19T21:05:18.190Z,13.5
2023-05-19T21:07:17.831Z,13.2
2023-05-19T21:09:17.569Z,13.2
2023-05-19T21:11:17.412Z,13.1
2023-05-19T21:13:17.437Z,13.2
2023-05-19T21:15:17.265Z,13.0
2023-05-19T21:17:17.932Z,13.1
2023-05-19T21:19:16.750Z,13.0
2023-05-19T21:21:16.640Z,13.1
2023-05-19T21:23:16.397Z,12.9
2023-05-19T21:25:16.275Z,13.0
2023-05-19T21:27:16.049Z,12.9
2023-05-19T21:31:15.767Z,12.8
2023-05-19T21:33:15.642Z,12.6
2023-05-19T21:35:15.694Z,12.1
2023-05-19T21:37:16.199Z,12.3
2023-05-19T21:39:15.378Z,12.3
2023-05-19T21:41:14.846Z,12.3
2023-05-19T21:43:14.995Z,12.2
2023-05-19T21:45:14.585Z,12.2
2023-05-19T21:47:15.029Z,12.1
2023-05-19T21:49:14.263Z,11.9
2023-05-19T21:51:14.052Z,12.1
2023-05-19T21:53:13.684Z,11.9
2023-05-19T21:55:13.515Z,11.8
2023-05-19T21:57:13.354Z,11.6
2023-05-19T21:59:13.226Z,11.6
2023-05-19T22:01:13.297Z,11.6
2023-05-19T22:03:13.020Z,11.3
2023-05-19T22:05:12.467Z,11.2
2023-05-19T22:07:12.240Z,11.1
2023-05-19T22:09:12.328Z,11.2
2023-05-19T22:11:13.846Z,11.5
2023-05-19T22:13:11.764Z,11.4
2023-05-19T22:17:11.254Z,11.4
2023-05-19T22:19:11.561Z,11.2
2023-05-19T22:21:11.019Z,11.3
2023-05-19T22:25:10.433Z,11.4
2023-05-19T22:27:10.594Z,11.1
2023-05-19T22:29:14.062Z,10.9
2023-05-19T22:31:09.874Z,10.9
2023-05-19T22:33:10.568Z,11.1
2023-05-19T22:35:11.327Z,11.0
2023-05-19T22:37:09.242Z,10.9
2023-05-19T22:39:09.714Z,11.1
2023-05-19T22:41:08.840Z,11.0
2023-05-19T22:43:08.511Z,10.9
2023-05-19T22:45:09.828Z,10.9
2023-05-19T22:47:12.249Z,10.9
2023-05-19T22:49:07.913Z,11.0
2023-05-19T22:51:07.724Z,11.0
2023-05-19T22:53:07.475Z,10.9
2023-05-19T22:55:07.668Z,11.0
2023-05-19T22:57:07.000Z,11.0
2023-05-19T22:59:06.919Z,11.0
2023-05-19T23:01:06.524Z,11.0
2023-05-19T23:03:06.408Z,10.7
2023-05-19T23:05:07.400Z,10.7
2023-05-19T23:07:05.783Z,10.8
2023-05-19T23:11:06.405Z,10.5
2023-05-19T23:13:05.679Z,10.7
2023-05-19T23:15:05.843Z,10.8
2023-05-19T23:17:04.854Z,10.8
2023-05-19T23:19:04.466Z,10.7
2023-05-19T23:25:06.500Z,10.8
2023-05-19T23:27:03.673Z,10.7
2023-05-19T23:29:03.173Z,10.7
2023-05-19T23:31:02.955Z,10.5
2023-05-19T23:33:02.927Z,10.2
2023-05-19T23:35:10.512Z,10.2
2023-05-19T23:39:02.513Z,10.4
2023-05-19T23:41:02.648Z,10.4
2023-05-19T23:43:01.434Z,10.4
2023-05-19T23:45:01.529Z,10.4
2023-05-19T23:47:00.961Z,10.5
2023-05-19T23:49:00.704Z,10.4
2023-05-19T23:53:00.380Z,10.4
2023-05-19T23:55:00.150Z,10.3
2023-05-19T23:57:01.153Z,10.2
2023-05-19T23:58:59.796Z,10.2
